createdAt,value
2018-01-20T00:00:41.804Z,0.00
2018-01-20T00:01:41.788Z,0.00
2018-01-20T00:02:41.760Z,0.00
2018-01-20T00:03:41.737Z,0.00
2018-01-20T00:04:41.717Z,0.00
2018-01-20T00:05:41.694Z,0.00
2018-01-20T00:06:41.671Z,0.00
2018-01-20T00:07:41.648Z,0.00
2018-01-20T00:08:41.626Z,0.00
2018-01-20T00:09:41.605Z,0.00
2018-01-20T00:10:41.580Z,0.00
2018-01-20T00:11:41.559Z,0.00
2018-01-20T00:12:41.536Z,0.00
2018-01-20T00:13:41.513Z,0.00
2018-01-20T00:14:41.494Z,0.00
2018-01-20T00:15:41.468Z,0.00
2018-01-20T00:16:41.446Z,0.00
2018-01-20T00:17:41.423Z,0.00
2018-01-20T00:18:41.401Z,0.00
2018-01-20T00:19:41.379Z,0.00
2018-01-20T00:20:41.357Z,0.00
2018-01-20T00:21:41.335Z,0.00
2018-01-20T00:22:41.311Z,0.00
2018-01-20T00:23:41.290Z,0.00
2018-01-20T00:24:41.267Z,0.00
2018-01-20T00:25:41.246Z,0.00
2018-01-20T00:26:41.222Z,0.00
2018-01-20T00:27:41.200Z,0.00
2018-01-20T00:28:41.178Z,0.00
2018-01-20T00:29:41.156Z,0.00
2018-01-20T00:30:41.133Z,0.00
2018-01-20T00:31:41.114Z,0.00
2018-01-20T00:32:41.090Z,0.00
2018-01-20T00:33:41.069Z,0.00
2018-01-20T00:34:41.045Z,0.00
2018-01-20T00:35:41.024Z,0.00
2018-01-20T00:36:41.002Z,0.00
2018-01-20T00:37:40.985Z,0.00
2018-01-20T00:38:40.957Z,0.00
2018-01-20T00:39:40.935Z,0.00
2018-01-20T00:40:40.913Z,0.00
2018-01-20T00:41:40.892Z,0.00
2018-01-20T00:42:40.872Z,0.00
2018-01-20T00:43:40.846Z,0.00
2018-01-20T00:44:40.824Z,0.00
2018-01-20T00:45:40.803Z,0.00
2018-01-20T00:46:40.781Z,0.00
2018-01-20T00:47:40.758Z,0.00
2018-01-20T00:48:40.737Z,0.00
2018-01-20T00:49:40.715Z,0.00
2018-01-20T00:50:40.692Z,0.00
2018-01-20T00:51:40.669Z,0.00
2018-01-20T00:52:40.649Z,0.00
2018-01-20T00:53:40.625Z,0.00
2018-01-20T00:54:40.603Z,0.00
2018-01-20T00:55:40.580Z,0.00
2018-01-20T00:56:40.559Z,0.00
2018-01-20T00:57:40.537Z,0.00
2018-01-20T00:58:40.514Z,0.00
2018-01-20T00:59:40.490Z,0.00
2018-01-20T01:00:40.469Z,0.00
2018-01-20T01:01:40.446Z,0.00
2018-01-20T01:02:40.424Z,0.00
2018-01-20T01:03:40.401Z,0.00
2018-01-20T01:04:40.380Z,0.00
2018-01-20T01:05:40.358Z,0.00
2018-01-20T01:06:40.334Z,0.00
2018-01-20T01:07:40.312Z,0.00
2018-01-20T01:08:40.290Z,0.00
2018-01-20T01:09:40.271Z,0.00
2018-01-20T01:10:40.244Z,0.00
2018-01-20T01:11:40.222Z,0.00
2018-01-20T01:12:40.200Z,0.00
2018-01-20T01:13:40.179Z,0.00
2018-01-20T01:14:40.154Z,0.00
2018-01-20T01:15:40.133Z,0.00
2018-01-20T01:16:40.111Z,0.00
2018-01-20T01:17:40.088Z,0.00
2018-01-20T01:18:40.065Z,0.00
2018-01-20T01:19:40.043Z,0.00
2018-01-20T01:20:40.021Z,0.00
2018-01-20T01:21:39.999Z,0.00
2018-01-20T01:22:39.976Z,0.00
2018-01-20T01:23:39.954Z,0.00
2018-01-20T01:24:39.933Z,0.00
2018-01-20T01:25:39.910Z,0.00
2018-01-20T01:26:39.887Z,0.00
2018-01-20T01:27:39.865Z,0.00
2018-01-20T01:28:39.846Z,0.00
2018-01-20T01:29:39.824Z,0.00
2018-01-20T01:30:39.802Z,0.00
2018-01-20T01:31:39.777Z,0.00
2018-01-20T01:32:39.755Z,0.00
2018-01-20T01:33:39.732Z,0.00
2018-01-20T01:34:39.710Z,0.00
2018-01-20T01:35:39.687Z,0.00
2018-01-20T01:36:39.670Z,0.00
2018-01-20T01:37:39.642Z,0.00
2018-01-20T01:38:39.619Z,0.00
2018-01-20T01:39:39.598Z,0.00
2018-01-20T01:40:39.576Z,0.00
2018-01-20T01:41:39.554Z,0.00
2018-01-20T01:42:39.530Z,0.00
2018-01-20T01:43:39.506Z,0.00
2018-01-20T01:44:39.485Z,0.00
2018-01-20T01:45:39.463Z,0.00
2018-01-20T01:46:39.441Z,0.00
2018-01-20T01:47:39.416Z,0.00
2018-01-20T01:48:39.395Z,0.00
2018-01-20T01:49:39.374Z,0.00
2018-01-20T01:50:39.353Z,0.00
2018-01-20T01:51:39.327Z,0.00
2018-01-20T01:52:39.304Z,0.00
2018-01-20T01:53:39.282Z,0.00
2018-01-20T01:54:39.259Z,0.00
2018-01-20T01:55:39.236Z,0.00
2018-01-20T01:56:39.214Z,0.00
2018-01-20T01:57:39.192Z,0.00
2018-01-20T01:58:39.168Z,0.00
2018-01-20T01:59:39.146Z,0.00
2018-01-20T02:00:39.124Z,0.00
2018-01-20T02:01:39.101Z,0.00
2018-01-20T02:02:39.078Z,0.00
2018-01-20T02:03:39.057Z,0.00
2018-01-20T02:04:39.034Z,0.00
2018-01-20T02:05:39.011Z,0.00
2018-01-20T02:06:38.987Z,0.00
2018-01-20T02:07:38.966Z,0.00
2018-01-20T02:08:38.944Z,0.00
2018-01-20T02:09:38.921Z,0.00
2018-01-20T02:10:38.898Z,0.00
2018-01-20T02:11:38.877Z,0.00
2018-01-20T02:12:38.855Z,0.00
2018-01-20T02:13:38.832Z,0.00
2018-01-20T02:14:38.809Z,0.00
2018-01-20T02:15:38.787Z,0.00
2018-01-20T02:16:38.764Z,0.00
2018-01-20T02:17:38.743Z,0.00
2018-01-20T02:18:38.723Z,0.00
2018-01-20T02:19:38.697Z,0.00
2018-01-20T02:20:38.675Z,0.00
2018-01-20T02:21:38.653Z,0.00
2018-01-20T02:22:38.629Z,0.00
2018-01-20T02:23:38.607Z,0.00
2018-01-20T02:24:38.585Z,0.00
2018-01-20T02:25:38.563Z,0.00
2018-01-20T02:26:38.539Z,0.00
2018-01-20T02:27:38.524Z,0.00
2018-01-20T02:28:38.494Z,0.00
2018-01-20T02:29:38.472Z,0.00
2018-01-20T02:30:38.448Z,0.00
2018-01-20T02:31:38.426Z,0.00
2018-01-20T02:32:38.404Z,0.00
2018-01-20T02:33:38.382Z,0.00
2018-01-20T02:34:38.359Z,0.00
2018-01-20T02:35:38.338Z,0.00
2018-01-20T02:36:38.314Z,0.00
2018-01-20T02:37:38.292Z,0.00
2018-01-20T02:38:38.269Z,0.00
2018-01-20T02:39:38.248Z,0.00
2018-01-20T02:40:38.224Z,0.00
2018-01-20T02:41:38.201Z,0.00
2018-01-20T02:42:38.177Z,0.00
2018-01-20T02:43:38.154Z,0.00
2018-01-20T02:44:38.134Z,0.00
2018-01-20T02:45:38.111Z,0.00
2018-01-20T02:46:38.087Z,0.00
2018-01-20T02:47:38.064Z,0.00
2018-01-20T02:48:38.041Z,0.00
2018-01-20T02:49:38.019Z,0.00
2018-01-20T02:50:37.996Z,0.00
2018-01-20T02:51:37.974Z,0.00
2018-01-20T02:52:37.952Z,0.00
2018-01-20T02:53:37.932Z,0.00
2018-01-20T02:54:37.904Z,0.00
2018-01-20T02:55:37.883Z,0.00
2018-01-20T02:56:37.862Z,0.00
2018-01-20T02:57:37.837Z,0.00
2018-01-20T02:58:37.815Z,0.00
2018-01-20T02:59:37.792Z,0.00
2018-01-20T03:00:37.770Z,0.00
2018-01-20T03:01:37.747Z,0.00
2018-01-20T03:02:37.724Z,0.00
2018-01-20T03:03:37.702Z,0.00
2018-01-20T03:04:37.679Z,0.00
2018-01-20T03:05:37.657Z,0.00
2018-01-20T03:06:37.634Z,0.00
2018-01-20T03:07:37.611Z,0.00
2018-01-20T03:08:37.589Z,0.00
2018-01-20T03:09:37.566Z,0.00
2018-01-20T03:10:37.543Z,0.00
2018-01-20T03:11:37.520Z,0.00
2018-01-20T03:12:37.498Z,0.00
2018-01-20T03:13:37.476Z,0.00
2018-01-20T03:14:37.452Z,0.00
2018-01-20T03:15:37.430Z,0.00
2018-01-20T03:16:37.407Z,0.00
2018-01-20T03:17:37.385Z,0.00
2018-01-20T03:18:37.360Z,0.00
2018-01-20T03:19:37.339Z,0.00
2018-01-20T03:20:37.315Z,0.00
2018-01-20T03:21:37.293Z,0.00
2018-01-20T03:22:37.269Z,0.00
2018-01-20T03:23:37.246Z,0.00
2018-01-20T03:24:37.223Z,0.00
2018-01-20T03:25:37.201Z,0.00
2018-01-20T03:26:37.178Z,0.00
2018-01-20T03:27:37.154Z,0.00
2018-01-20T03:28:37.133Z,0.00
2018-01-20T03:29:37.109Z,0.00
2018-01-20T03:30:37.086Z,0.00
2018-01-20T03:31:37.062Z,0.00
2018-01-20T03:32:37.040Z,0.00
2018-01-20T03:33:37.017Z,0.00
2018-01-20T03:34:36.994Z,0.00
2018-01-20T03:35:36.970Z,0.00
2018-01-20T03:36:36.948Z,0.00
2018-01-20T03:37:36.925Z,0.00
2018-01-20T03:38:36.901Z,0.00
2018-01-20T03:39:36.879Z,0.00
2018-01-20T03:40:36.855Z,0.00
2018-01-20T03:41:36.833Z,0.00
2018-01-20T03:42:36.809Z,0.00
2018-01-20T03:43:36.786Z,0.00
2018-01-20T03:44:36.762Z,0.00
2018-01-20T03:45:36.740Z,0.00
2018-01-20T03:46:36.716Z,0.00
2018-01-20T03:47:36.694Z,0.00
2018-01-20T03:48:36.671Z,0.00
2018-01-20T03:49:36.649Z,0.00
2018-01-20T03:50:36.624Z,0.00
2018-01-20T03:51:36.602Z,0.00
2018-01-20T03:52:36.581Z,0.00
2018-01-20T03:53:36.557Z,0.00
2018-01-20T03:54:36.534Z,0.00
2018-01-20T03:55:36.511Z,0.00
2018-01-20T03:56:36.489Z,0.00
2018-01-20T03:57:36.466Z,0.00
2018-01-20T03:58:36.442Z,0.00
2018-01-20T03:59:36.420Z,0.00
2018-01-20T04:00:36.397Z,0.00
2018-01-20T04:01:36.375Z,0.00
2018-01-20T04:02:36.352Z,0.00
2018-01-20T04:03:36.330Z,0.00
2018-01-20T04:04:36.306Z,0.00
2018-01-20T04:05:36.284Z,0.00
2018-01-20T04:06:36.261Z,0.00
2018-01-20T04:07:36.238Z,0.00
2018-01-20T04:08:36.214Z,0.00
2018-01-20T04:09:36.194Z,0.00
2018-01-20T04:10:36.170Z,0.00
2018-01-20T04:11:36.148Z,0.00
2018-01-20T04:12:36.126Z,0.00
2018-01-20T04:13:36.103Z,0.00
2018-01-20T04:14:36.080Z,0.00
2018-01-20T04:15:36.058Z,0.00
2018-01-20T04:16:36.034Z,0.00
2018-01-20T04:17:36.013Z,0.00
2018-01-20T04:18:35.990Z,0.00
2018-01-20T04:19:35.966Z,0.00
2018-01-20T04:20:35.945Z,0.00
2018-01-20T04:21:35.923Z,0.00
2018-01-20T04:22:35.900Z,0.00
2018-01-20T04:23:35.877Z,0.00
2018-01-20T04:24:35.855Z,0.00
2018-01-20T04:25:35.834Z,0.00
2018-01-20T04:26:35.810Z,0.00
2018-01-20T04:27:35.788Z,0.00
2018-01-20T04:28:35.766Z,0.00
2018-01-20T04:29:35.744Z,0.00
2018-01-20T04:30:35.724Z,0.00
2018-01-20T04:31:35.699Z,0.00
2018-01-20T04:32:35.677Z,0.00
2018-01-20T04:33:35.655Z,0.00
2018-01-20T04:34:35.634Z,0.00
2018-01-20T04:35:35.609Z,0.00
2018-01-20T04:36:35.594Z,0.00
2018-01-20T04:37:35.566Z,0.00
2018-01-20T04:38:35.543Z,0.00
2018-01-20T04:39:35.521Z,0.00
2018-01-20T04:40:35.499Z,0.00
2018-01-20T04:41:35.479Z,0.00
2018-01-20T04:42:35.454Z,0.00
2018-01-20T04:43:35.432Z,0.00
2018-01-20T04:44:35.410Z,0.00
2018-01-20T04:45:35.387Z,0.00
2018-01-20T04:46:35.366Z,0.00
2018-01-20T04:47:35.343Z,0.00
2018-01-20T04:48:35.323Z,0.00
2018-01-20T04:49:35.301Z,0.00
2018-01-20T04:50:35.277Z,0.00
2018-01-20T04:51:35.254Z,0.00
2018-01-20T04:52:35.232Z,0.00
2018-01-20T04:53:35.210Z,0.00
2018-01-20T04:54:35.187Z,0.00
2018-01-20T04:55:35.165Z,0.00
2018-01-20T04:56:35.143Z,0.00
2018-01-20T04:57:35.121Z,0.00
2018-01-20T04:58:35.098Z,0.00
2018-01-20T04:59:35.076Z,0.00
2018-01-20T05:00:35.052Z,0.00
2018-01-20T05:01:35.031Z,0.00
2018-01-20T05:02:35.008Z,0.00
2018-01-20T05:03:34.985Z,0.00
2018-01-20T05:04:34.966Z,0.00
2018-01-20T05:05:34.942Z,0.00
2018-01-20T05:06:34.918Z,0.00
2018-01-20T05:07:34.897Z,0.00
2018-01-20T05:08:34.875Z,0.00
2018-01-20T05:09:34.853Z,0.00
2018-01-20T05:10:34.830Z,0.00
2018-01-20T05:11:34.808Z,0.00
2018-01-20T05:12:34.786Z,0.00
2018-01-20T05:13:34.763Z,0.00
2018-01-20T05:14:34.741Z,0.00
2018-01-20T05:15:34.718Z,0.00
2018-01-20T05:16:34.696Z,0.00
2018-01-20T05:17:34.674Z,0.00
2018-01-20T05:18:34.651Z,0.00
2018-01-20T05:19:34.629Z,0.00
2018-01-20T05:20:34.607Z,0.00
2018-01-20T05:21:34.587Z,0.00
2018-01-20T05:22:34.562Z,0.00
2018-01-20T05:23:34.540Z,0.00
2018-01-20T05:24:34.519Z,0.00
2018-01-20T05:25:34.496Z,0.00
2018-01-20T05:26:34.473Z,0.00
2018-01-20T05:27:34.474Z,0.00
2018-01-20T05:28:34.429Z,0.00
2018-01-20T05:29:34.407Z,0.00
2018-01-20T05:30:34.384Z,0.00
2018-01-20T05:31:34.407Z,0.00
2018-01-20T05:32:34.340Z,0.00
2018-01-20T05:33:34.318Z,0.00
2018-01-20T05:34:34.294Z,0.00
2018-01-20T05:35:34.273Z,0.00
2018-01-20T05:36:34.250Z,0.00
2018-01-20T05:37:34.228Z,0.00
2018-01-20T05:38:34.205Z,0.00
2018-01-20T05:39:34.183Z,0.00
2018-01-20T05:40:34.162Z,0.00
2018-01-20T05:41:34.139Z,0.00
2018-01-20T05:42:34.117Z,0.00
2018-01-20T05:43:34.095Z,0.00
2018-01-20T05:44:34.073Z,0.00
2018-01-20T05:45:34.050Z,0.00
2018-01-20T05:46:34.030Z,0.00
2018-01-20T05:47:34.006Z,0.00
2018-01-20T05:48:33.984Z,0.00
2018-01-20T05:49:33.961Z,0.00
2018-01-20T05:50:33.940Z,0.00
2018-01-20T05:51:33.917Z,0.00
2018-01-20T05:52:33.897Z,0.00
2018-01-20T05:53:33.874Z,0.00
2018-01-20T05:54:33.851Z,0.00
2018-01-20T05:55:33.832Z,0.00
2018-01-20T05:56:33.807Z,0.00
2018-01-20T05:57:33.785Z,0.00
2018-01-20T05:58:33.761Z,0.00
2018-01-20T05:59:33.741Z,0.00
2018-01-20T06:00:33.720Z,0.00
2018-01-20T06:01:33.696Z,0.00
2018-01-20T06:02:33.674Z,0.00
2018-01-20T06:03:33.651Z,0.00
2018-01-20T06:04:33.629Z,0.00
2018-01-20T06:05:33.609Z,0.00
2018-01-20T06:06:33.586Z,0.00
2018-01-20T06:07:33.563Z,0.00
2018-01-20T06:08:33.541Z,0.00
2018-01-20T06:09:33.520Z,0.00
2018-01-20T06:10:33.497Z,0.00
2018-01-20T06:11:33.474Z,0.00
2018-01-20T06:12:33.453Z,0.00
2018-01-20T06:13:33.430Z,0.00
2018-01-20T06:14:33.407Z,0.00
2018-01-20T06:15:33.386Z,0.00
2018-01-20T06:16:33.364Z,0.00
2018-01-20T06:17:33.342Z,0.00
2018-01-20T06:18:33.319Z,0.00
2018-01-20T06:19:33.296Z,0.00
2018-01-20T06:20:33.275Z,0.00
2018-01-20T06:21:33.253Z,0.00
2018-01-20T06:22:33.230Z,0.00
2018-01-20T06:23:33.207Z,0.00
2018-01-20T06:24:33.185Z,0.00
2018-01-20T06:25:33.164Z,0.00
2018-01-20T06:26:33.140Z,0.00
2018-01-20T06:27:33.118Z,0.00
2018-01-20T06:28:33.097Z,0.00
2018-01-20T06:29:33.075Z,0.00
2018-01-20T06:30:33.052Z,0.00
2018-01-20T06:31:33.030Z,0.00
2018-01-20T06:32:33.008Z,0.00
2018-01-20T06:33:32.986Z,0.00
2018-01-20T06:34:32.963Z,0.00
2018-01-20T06:35:32.941Z,0.00
2018-01-20T06:36:32.920Z,0.00
2018-01-20T06:37:32.897Z,0.00
2018-01-20T06:38:32.875Z,0.00
2018-01-20T06:39:32.852Z,0.00
2018-01-20T06:40:32.831Z,0.00
2018-01-20T06:41:32.808Z,0.00
2018-01-20T06:42:32.786Z,0.00
2018-01-20T06:43:32.762Z,0.00
2018-01-20T06:44:32.742Z,0.00
2018-01-20T06:45:32.720Z,0.00
2018-01-20T06:46:32.697Z,0.00
2018-01-20T06:47:32.675Z,0.00
2018-01-20T06:48:32.652Z,0.00
2018-01-20T06:49:32.632Z,0.00
2018-01-20T06:50:32.607Z,0.00
2018-01-20T06:51:32.586Z,0.00
2018-01-20T06:52:32.564Z,0.00
2018-01-20T06:53:32.541Z,0.00
2018-01-20T06:54:32.518Z,0.00
2018-01-20T06:55:32.497Z,0.00
2018-01-20T06:56:32.473Z,0.00
2018-01-20T06:57:32.452Z,0.00
2018-01-20T06:58:32.429Z,0.00
2018-01-20T06:59:32.407Z,0.00
2018-01-20T07:00:32.385Z,0.00
2018-01-20T07:01:32.362Z,0.00
2018-01-20T07:02:32.358Z,0.00
2018-01-20T07:03:32.316Z,0.00
2018-01-20T07:04:32.295Z,0.00
2018-01-20T07:05:32.272Z,0.00
2018-01-20T07:06:32.251Z,4.00
2018-01-20T07:07:32.229Z,4.00
2018-01-20T07:08:32.206Z,0.00
2018-01-20T07:09:32.185Z,0.00
2018-01-20T07:10:32.162Z,4.00
2018-01-20T07:11:32.141Z,0.00
2018-01-20T07:12:32.119Z,4.00
2018-01-20T07:13:32.101Z,4.00
2018-01-20T07:14:32.073Z,4.00
2018-01-20T07:15:32.053Z,4.00
2018-01-20T07:16:32.031Z,4.00
2018-01-20T07:17:32.012Z,8.00
2018-01-20T07:18:31.987Z,4.00
2018-01-20T07:19:31.965Z,8.00
2018-01-20T07:20:31.942Z,8.00
2018-01-20T07:21:31.921Z,12.00
2018-01-20T07:22:31.899Z,8.00
2018-01-20T07:23:31.877Z,12.00
2018-01-20T07:24:31.855Z,12.00
2018-01-20T07:25:31.833Z,16.00
2018-01-20T07:26:31.811Z,12.00
2018-01-20T07:27:31.788Z,16.00
2018-01-20T07:28:31.768Z,16.00
2018-01-20T07:29:31.746Z,20.00
2018-01-20T07:30:31.724Z,24.00
2018-01-20T07:31:31.702Z,24.00
2018-01-20T07:32:31.679Z,24.00
2018-01-20T07:33:31.661Z,24.00
2018-01-20T07:34:31.636Z,28.00
2018-01-20T07:35:31.614Z,24.00
2018-01-20T07:36:31.591Z,32.00
2018-01-20T07:37:31.571Z,28.00
2018-01-20T07:38:31.548Z,32.00
2018-01-20T07:39:31.527Z,36.00
2018-01-20T07:40:31.504Z,36.00
2018-01-20T07:41:31.483Z,40.00
2018-01-20T07:42:31.461Z,44.00
2018-01-20T07:43:31.439Z,52.00
2018-01-20T07:44:31.418Z,68.00
2018-01-20T07:45:31.396Z,56.00
2018-01-20T07:46:31.372Z,60.00
2018-01-20T07:47:31.351Z,60.00
2018-01-20T07:48:31.330Z,64.00
2018-01-20T07:49:31.308Z,64.00
2018-01-20T07:50:31.285Z,64.00
2018-01-20T07:51:31.264Z,68.00
2018-01-20T07:52:31.242Z,76.00
2018-01-20T07:53:31.220Z,80.00
2018-01-20T07:54:31.198Z,84.00
2018-01-20T07:55:31.174Z,92.00
2018-01-20T07:56:31.154Z,100.00
2018-01-20T07:57:31.132Z,108.00
2018-01-20T07:58:31.109Z,112.00
2018-01-20T07:59:31.088Z,120.00
2018-01-20T08:00:31.066Z,128.00
2018-01-20T08:01:31.045Z,136.00
2018-01-20T08:02:31.022Z,148.00
2018-01-20T08:03:31.001Z,152.00
2018-01-20T08:04:30.980Z,156.00
2018-01-20T08:05:30.958Z,156.00
2018-01-20T08:06:30.936Z,152.00
2018-01-20T08:07:30.914Z,152.00
2018-01-20T08:08:30.893Z,152.00
2018-01-20T08:09:30.871Z,160.00
2018-01-20T08:10:30.847Z,164.00
2018-01-20T08:11:30.827Z,168.00
2018-01-20T08:12:30.805Z,168.00
2018-01-20T08:13:30.783Z,172.00
2018-01-20T08:14:30.762Z,172.00
2018-01-20T08:15:30.740Z,188.00
2018-01-20T08:16:30.718Z,212.00
2018-01-20T08:17:30.696Z,260.00
2018-01-20T08:18:30.675Z,232.00
2018-01-20T08:19:30.652Z,232.00
2018-01-20T08:20:30.632Z,192.00
2018-01-20T08:21:30.610Z,192.00
2018-01-20T08:22:30.587Z,184.00
2018-01-20T08:23:30.566Z,172.00
2018-01-20T08:24:30.567Z,180.00
2018-01-20T08:25:30.523Z,176.00
2018-01-20T08:26:30.501Z,172.00
2018-01-20T08:27:30.479Z,176.00
2018-01-20T08:28:30.457Z,176.00
2018-01-20T08:29:30.436Z,176.00
2018-01-20T08:30:30.416Z,192.00
2018-01-20T08:31:30.392Z,188.00
2018-01-20T08:32:30.371Z,168.00
2018-01-20T08:33:30.350Z,164.00
2018-01-20T08:34:30.327Z,180.00
2018-01-20T08:35:30.305Z,196.00
2018-01-20T08:36:30.284Z,220.00
2018-01-20T08:37:30.263Z,216.00
2018-01-20T08:38:30.240Z,256.00
2018-01-20T08:39:30.219Z,256.00
2018-01-20T08:40:30.198Z,272.00
2018-01-20T08:41:30.176Z,256.00
2018-01-20T08:42:30.154Z,256.00
2018-01-20T08:43:30.132Z,252.00
2018-01-20T08:44:30.112Z,260.00
2018-01-20T08:45:30.089Z,256.00
2018-01-20T08:46:30.068Z,260.00
2018-01-20T08:47:30.047Z,260.00
2018-01-20T08:48:30.028Z,248.00
2018-01-20T08:49:30.004Z,256.00
2018-01-20T08:50:30.006Z,252.00
2018-01-20T08:51:29.959Z,252.00
2018-01-20T08:52:29.937Z,252.00
2018-01-20T08:53:29.917Z,264.00
2018-01-20T08:54:29.895Z,284.00
2018-01-20T08:55:29.874Z,304.00
2018-01-20T08:56:29.851Z,304.00
2018-01-20T08:57:29.831Z,300.00
2018-01-20T08:58:29.808Z,300.00
2018-01-20T08:59:29.787Z,300.00
2018-01-20T09:00:29.766Z,272.00
2018-01-20T09:01:29.753Z,288.00
2018-01-20T09:02:29.721Z,256.00
2018-01-20T09:03:29.701Z,276.00
2018-01-20T09:04:29.678Z,324.00
2018-01-20T09:05:29.657Z,292.00
2018-01-20T09:06:29.636Z,300.00
2018-01-20T09:07:29.613Z,304.00
2018-01-20T09:08:29.593Z,292.00
2018-01-20T09:09:29.570Z,312.00
2018-01-20T09:10:29.548Z,324.00
2018-01-20T09:11:29.526Z,296.00
2018-01-20T09:12:29.507Z,312.00
2018-01-20T09:13:29.484Z,340.00
2018-01-20T09:14:29.463Z,344.00
2018-01-20T09:15:29.447Z,368.00
2018-01-20T09:16:29.421Z,388.00
2018-01-20T09:17:29.399Z,412.00
2018-01-20T09:18:29.376Z,316.00
2018-01-20T09:19:29.356Z,256.00
2018-01-20T09:20:29.334Z,260.00
2018-01-20T09:21:29.313Z,236.00
2018-01-20T09:22:29.291Z,328.00
2018-01-20T09:23:29.270Z,272.00
2018-01-20T09:24:29.251Z,316.00
2018-01-20T09:25:29.226Z,288.00
2018-01-20T09:26:29.204Z,312.00
2018-01-20T09:27:29.196Z,276.00
2018-01-20T09:28:29.176Z,296.00
2018-01-20T09:29:29.140Z,248.00
2018-01-20T09:30:29.124Z,276.00
2018-01-20T09:31:29.098Z,372.00
2018-01-20T09:32:29.076Z,372.00
2018-01-20T09:33:29.054Z,360.00
2018-01-20T09:34:29.033Z,372.00
2018-01-20T09:35:29.014Z,344.00
2018-01-20T09:36:28.990Z,296.00
2018-01-20T09:37:28.969Z,284.00
2018-01-20T09:38:28.947Z,324.00
2018-01-20T09:39:28.924Z,304.00
2018-01-20T09:40:28.905Z,304.00
2018-01-20T09:41:28.884Z,284.00
2018-01-20T09:42:28.861Z,252.00
2018-01-20T09:43:28.839Z,284.00
2018-01-20T09:44:28.818Z,300.00
2018-01-20T09:45:28.797Z,260.00
2018-01-20T09:46:28.774Z,268.00
2018-01-20T09:47:28.758Z,288.00
2018-01-20T09:48:28.730Z,260.00
2018-01-20T09:49:28.710Z,268.00
2018-01-20T09:50:28.688Z,308.00
2018-01-20T09:51:28.666Z,300.00
2018-01-20T09:52:28.645Z,320.00
2018-01-20T09:54:37.506Z,344.00
2018-01-20T09:55:37.483Z,328.00
2018-01-20T09:56:37.459Z,392.00
2018-01-20T09:57:37.453Z,344.00
2018-01-20T09:58:37.414Z,332.00
2018-01-20T09:59:37.392Z,376.00
2018-01-20T10:00:37.369Z,380.00
2018-01-20T10:01:37.348Z,396.00
2018-01-20T10:02:37.325Z,348.00
2018-01-20T10:03:37.305Z,316.00
2018-01-20T10:04:37.282Z,388.00
2018-01-20T10:05:37.260Z,376.00
2018-01-20T10:06:37.239Z,360.00
2018-01-20T10:07:37.217Z,356.00
2018-01-20T10:08:37.195Z,400.00
2018-01-20T10:09:37.173Z,420.00
2018-01-20T10:10:37.155Z,356.00
2018-01-20T10:11:37.131Z,332.00
2018-01-20T10:12:37.108Z,424.00
2018-01-20T10:13:37.088Z,372.00
2018-01-20T10:14:37.065Z,356.00
2018-01-20T10:15:37.045Z,376.00
2018-01-20T10:16:37.021Z,320.00
2018-01-20T10:17:37.000Z,320.00
2018-01-20T10:18:36.977Z,328.00
2018-01-20T10:19:36.956Z,324.00
2018-01-20T10:20:36.932Z,300.00
2018-01-20T10:21:36.915Z,308.00
2018-01-20T10:22:36.888Z,300.00
2018-01-20T10:23:36.866Z,300.00
2018-01-20T10:24:36.841Z,344.00
2018-01-20T10:25:36.820Z,376.00
2018-01-20T10:26:36.796Z,372.00
2018-01-20T10:27:36.774Z,420.00
2018-01-20T10:28:36.751Z,404.00
2018-01-20T10:29:36.727Z,368.00
2018-01-20T10:30:36.706Z,476.00
2018-01-20T10:31:36.683Z,456.00
2018-01-20T10:32:36.660Z,492.00
2018-01-20T10:33:36.639Z,484.00
2018-01-20T10:34:36.619Z,592.00
2018-01-20T10:35:36.590Z,680.00
2018-01-20T10:36:36.566Z,652.00
2018-01-20T10:37:36.545Z,732.00
2018-01-20T10:38:36.521Z,716.00
2018-01-20T10:39:36.498Z,664.00
2018-01-20T10:40:36.475Z,688.00
2018-01-20T10:41:36.452Z,748.00
2018-01-20T10:42:36.429Z,732.00
2018-01-20T10:43:36.406Z,644.00
2018-01-20T10:44:36.382Z,692.00
2018-01-20T10:45:36.360Z,608.00
2018-01-20T10:46:36.336Z,552.00
2018-01-20T10:47:36.314Z,584.00
2018-01-20T10:48:36.291Z,636.00
2018-01-20T10:49:36.271Z,516.00
2018-01-20T10:50:36.244Z,536.00
2018-01-20T10:51:36.222Z,488.00
2018-01-20T10:52:36.198Z,488.00
2018-01-20T10:53:36.175Z,460.00
2018-01-20T10:54:36.153Z,424.00
2018-01-20T10:55:36.132Z,412.00
2018-01-20T10:56:36.105Z,416.00
2018-01-20T10:57:36.083Z,424.00
2018-01-20T10:58:36.059Z,452.00
2018-01-20T10:59:36.036Z,472.00
2018-01-20T11:00:36.013Z,548.00
2018-01-20T11:01:35.991Z,508.00
2018-01-20T11:02:35.968Z,456.00
2018-01-20T11:03:35.946Z,408.00
2018-01-20T11:04:35.920Z,360.00
2018-01-20T11:05:35.897Z,360.00
2018-01-20T11:06:35.877Z,364.00
2018-01-20T11:07:35.854Z,408.00
2018-01-20T11:08:35.828Z,380.00
2018-01-20T11:09:35.804Z,352.00
2018-01-20T11:10:35.781Z,372.00
2018-01-20T11:11:35.758Z,388.00
2018-01-20T11:12:35.731Z,392.00
2018-01-20T11:13:35.709Z,436.00
2018-01-20T11:14:35.685Z,492.00
2018-01-20T11:15:35.665Z,576.00
2018-01-20T11:16:35.638Z,596.00
2018-01-20T11:17:35.616Z,584.00
2018-01-20T11:18:35.593Z,576.00
2018-01-20T11:19:35.569Z,500.00
2018-01-20T11:20:35.546Z,480.00
2018-01-20T11:21:35.523Z,432.00
2018-01-20T11:22:35.499Z,448.00
2018-01-20T11:23:35.476Z,492.00
2018-01-20T11:24:35.453Z,512.00
2018-01-20T11:25:35.429Z,492.00
2018-01-20T11:26:35.407Z,476.00
2018-01-20T11:27:35.384Z,476.00
2018-01-20T11:28:35.360Z,492.00
2018-01-20T11:29:35.341Z,456.00
2018-01-20T11:30:35.313Z,428.00
2018-01-20T11:31:35.289Z,424.00
2018-01-20T11:32:35.266Z,416.00
2018-01-20T11:33:35.242Z,396.00
2018-01-20T11:34:35.220Z,420.00
2018-01-20T11:35:35.195Z,440.00
2018-01-20T11:36:35.172Z,488.00
2018-01-20T11:37:35.150Z,496.00
2018-01-20T11:38:35.126Z,484.00
2018-01-20T11:39:35.102Z,464.00
2018-01-20T11:40:35.080Z,448.00
2018-01-20T11:41:35.060Z,476.00
2018-01-20T11:42:35.034Z,512.00
2018-01-20T11:43:35.012Z,528.00
2018-01-20T11:44:34.988Z,516.00
2018-01-20T11:45:34.967Z,492.00
2018-01-20T11:46:34.943Z,484.00
2018-01-20T11:47:34.920Z,444.00
2018-01-20T11:48:34.896Z,436.00
2018-01-20T11:49:34.873Z,468.00
2018-01-20T11:50:34.852Z,472.00
2018-01-20T11:51:34.863Z,456.00
2018-01-20T11:52:34.806Z,460.00
2018-01-20T11:53:34.783Z,480.00
2018-01-20T11:54:34.761Z,460.00
2018-01-20T11:55:34.739Z,404.00
2018-01-20T11:56:34.715Z,412.00
2018-01-20T11:57:34.693Z,392.00
2018-01-20T11:58:34.671Z,432.00
2018-01-20T11:59:34.648Z,448.00
2018-01-20T12:00:34.625Z,432.00
2018-01-20T12:01:34.603Z,448.00
2018-01-20T12:02:34.581Z,428.00
2018-01-20T12:03:34.559Z,472.00
2018-01-20T12:04:34.535Z,496.00
2018-01-20T12:05:34.512Z,512.00
2018-01-20T12:06:34.491Z,504.00
2018-01-20T12:07:34.469Z,556.00
2018-01-20T12:08:34.446Z,596.00
2018-01-20T12:09:34.424Z,612.00
2018-01-20T12:10:34.404Z,576.00
2018-01-20T12:11:34.379Z,548.00
2018-01-20T12:12:34.356Z,544.00
2018-01-20T12:13:34.334Z,536.00
2018-01-20T12:14:34.311Z,520.00
2018-01-20T12:15:34.290Z,576.00
2018-01-20T12:16:34.267Z,648.00
2018-01-20T12:17:34.245Z,580.00
2018-01-20T12:18:34.223Z,592.00
2018-01-20T12:19:34.201Z,532.00
2018-01-20T12:20:34.178Z,572.00
2018-01-20T12:21:34.156Z,608.00
2018-01-20T12:22:34.134Z,588.00
2018-01-20T12:23:34.111Z,584.00
2018-01-20T12:24:34.089Z,580.00
2018-01-20T12:25:34.066Z,632.00
2018-01-20T12:26:34.044Z,600.00
2018-01-20T12:27:34.023Z,612.00
2018-01-20T12:28:34.006Z,544.00
2018-01-20T12:29:33.977Z,500.00
2018-01-20T12:30:33.957Z,472.00
2018-01-20T12:31:33.934Z,464.00
2018-01-20T12:32:33.912Z,476.00
2018-01-20T12:33:33.890Z,440.00
2018-01-20T12:34:33.868Z,480.00
2018-01-20T12:35:33.846Z,556.00
2018-01-20T12:36:33.823Z,592.00
2018-01-20T12:37:33.800Z,556.00
2018-01-20T12:38:33.787Z,496.00
2018-01-20T12:39:33.758Z,544.00
2018-01-20T12:40:33.735Z,552.00
2018-01-20T12:41:33.718Z,532.00
2018-01-20T12:42:33.691Z,476.00
2018-01-20T12:43:33.669Z,508.00
2018-01-20T12:44:33.652Z,492.00
2018-01-20T12:45:33.625Z,464.00
2018-01-20T12:46:33.603Z,488.00
2018-01-20T12:47:33.581Z,492.00
2018-01-20T12:48:33.558Z,496.00
2018-01-20T12:49:33.536Z,500.00
2018-01-20T12:50:33.515Z,500.00
2018-01-20T12:51:33.493Z,472.00
2018-01-20T12:52:33.470Z,472.00
2018-01-20T12:53:33.448Z,464.00
2018-01-20T12:54:33.427Z,512.00
2018-01-20T12:55:33.404Z,496.00
2018-01-20T12:56:33.387Z,416.00
2018-01-20T12:57:33.360Z,456.00
2018-01-20T12:58:33.337Z,484.00